createdAt,value
2024-03-13T00:00:24.302Z,99749.22
2024-03-13T00:01:07.563Z,99744.13
2024-03-13T00:01:52.814Z,99739.31
2024-03-13T00:02:36.331Z,99738.13
2024-03-13T00:03:18.042Z,99748.97
2024-03-13T00:04:00.099Z,99746.66
2024-03-13T00:04:45.014Z,99733.13
2024-03-13T00:05:26.881Z,99729.81
2024-03-13T00:06:10.756Z,99726.19
2024-03-13T00:06:52.499Z,99753.38
2024-03-13T00:07:34.327Z,99741.63
2024-03-13T00:08:16.445Z,99728.66
2024-03-13T00:08:58.132Z,99747.25
2024-03-13T00:09:47.366Z,99747.09
2024-03-13T00:10:29.323Z,99745.13
2024-03-13T00:11:11.149Z,99744.31
2024-03-13T00:11:54.047Z,99747.00
2024-03-13T00:12:36.134Z,99728.88
2024-03-13T00:13:17.950Z,99737.63
2024-03-13T00:13:59.718Z,99714.75
2024-03-13T00:14:42.266Z,99737.13
2024-03-13T00:15:24.014Z,99707.50
2024-03-13T00:16:06.759Z,99735.69
2024-03-13T00:16:48.504Z,99733.22
2024-03-13T00:17:31.533Z,99737.84
2024-03-13T00:18:14.959Z,99716.06
2024-03-13T00:18:56.786Z,99734.03
2024-03-13T00:19:38.551Z,99733.22
2024-03-13T00:20:20.305Z,99723.97
2024-03-13T00:21:02.056Z,99737.47
2024-03-13T00:21:44.680Z,99733.84
2024-03-13T00:22:26.831Z,99736.31
2024-03-13T00:23:10.625Z,99718.03
2024-03-13T00:23:53.814Z,99720.00
2024-03-13T00:24:35.672Z,99727.94
2024-03-13T00:25:17.402Z,99727.44
2024-03-13T00:25:59.173Z,99727.78
2024-03-13T00:26:41.104Z,99726.94
2024-03-13T00:27:22.796Z,99700.91
2024-03-13T00:28:04.788Z,99726.13
2024-03-13T00:28:46.505Z,99713.41
2024-03-13T00:29:28.194Z,99695.41
2024-03-13T00:30:10.345Z,99728.22
2024-03-13T00:30:52.113Z,99716.66
2024-03-13T00:31:34.992Z,99715.34
2024-03-13T00:32:19.259Z,99730.25
2024-03-13T00:33:01.079Z,99730.63
2024-03-13T00:33:43.202Z,99735.75
2024-03-13T00:34:25.210Z,99731.97
2024-03-13T00:35:08.075Z,99703.16
2024-03-13T00:35:49.839Z,99729.50
2024-03-13T00:36:31.518Z,99727.84
2024-03-13T00:37:14.842Z,99728.22
2024-03-13T00:37:56.636Z,99730.19
2024-03-13T00:38:38.388Z,99720.63
2024-03-13T00:39:21.151Z,99719.81
2024-03-13T00:40:04.883Z,99728.72
2024-03-13T00:40:46.941Z,99730.53
2024-03-13T00:41:28.852Z,99727.06
2024-03-13T00:42:12.852Z,99726.25
2024-03-13T00:42:55.790Z,99719.31
2024-03-13T00:43:37.637Z,99705.31
2024-03-13T00:44:19.477Z,99697.59
2024-03-13T00:45:01.224Z,99721.34
2024-03-13T00:45:43.109Z,99699.91
2024-03-13T00:46:24.895Z,99700.25
2024-03-13T00:47:07.879Z,99712.59
2024-03-13T00:47:49.625Z,99726.13
2024-03-13T00:48:33.194Z,99703.03
2024-03-13T00:49:15.026Z,99727.63
2024-03-13T00:49:56.755Z,99733.38
2024-03-13T00:50:40.421Z,99726.75
2024-03-13T00:51:22.880Z,99718.00
2024-03-13T00:52:08.175Z,99696.91
2024-03-13T00:52:50.111Z,99728.50
2024-03-13T00:53:31.831Z,99719.91
2024-03-13T00:54:13.609Z,99711.53
2024-03-13T00:54:55.455Z,99725.47
2024-03-13T00:55:37.195Z,99730.41
2024-03-13T00:56:18.950Z,99701.75
2024-03-13T00:57:01.453Z,99732.34
2024-03-13T00:57:43.859Z,99725.06
2024-03-13T00:58:27.761Z,99727.53
2024-03-13T00:59:13.096Z,99728.03
2024-03-13T00:59:54.918Z,99725.22
2024-03-13T01:00:38.233Z,99727.31
2024-03-13T01:01:20.038Z,99707.56
2024-03-13T01:02:03.142Z,99728.63
2024-03-13T01:02:46.302Z,99724.97
2024-03-13T01:03:29.372Z,99728.63
2024-03-13T01:04:12.299Z,99724.50
2024-03-13T01:04:55.939Z,99731.59
2024-03-13T01:05:37.612Z,99726.50
2024-03-13T01:06:20.065Z,99713.34
2024-03-13T01:07:02.310Z,99731.59
2024-03-13T01:07:45.471Z,99705.56
2024-03-13T01:08:27.502Z,99720.75
2024-03-13T01:09:12.191Z,99726.16
2024-03-13T01:09:53.973Z,99720.03
2024-03-13T01:10:35.773Z,99732.91
2024-03-13T01:11:17.610Z,99730.94
2024-03-13T01:11:59.610Z,99728.84
2024-03-13T01:12:41.309Z,99734.66
2024-03-13T01:13:23.183Z,99729.06
2024-03-13T01:14:05.015Z,99723.16
2024-03-13T01:14:47.260Z,99704.91
2024-03-13T01:15:29.111Z,99705.44
2024-03-13T01:16:12.173Z,99710.34
2024-03-13T01:16:54.981Z,99726.94
2024-03-13T01:17:36.921Z,99721.66
2024-03-13T01:18:20.295Z,99718.03
2024-03-13T01:19:03.595Z,99715.56
2024-03-13T01:19:45.316Z,99694.50
2024-03-13T01:20:27.110Z,99706.03
2024-03-13T01:21:09.534Z,99716.72
2024-03-13T01:21:56.114Z,99722.34
2024-03-13T01:22:38.391Z,99718.63
2024-03-13T01:23:21.795Z,99692.16
2024-03-13T01:24:03.811Z,99696.44
2024-03-13T01:24:47.356Z,99707.31
2024-03-13T01:25:29.404Z,99710.78
2024-03-13T01:26:11.561Z,99715.25
2024-03-13T01:26:53.646Z,99722.50
2024-03-13T01:27:35.357Z,99712.94
2024-03-13T01:28:17.094Z,99709.47
2024-03-13T01:28:58.885Z,99689.06
2024-03-13T01:29:43.196Z,99714.09
2024-03-13T01:30:25.097Z,99710.13
2024-03-13T01:31:07.320Z,99708.66
2024-03-13T01:31:49.042Z,99678.66
2024-03-13T01:32:31.129Z,99682.47
2024-03-13T01:33:13.907Z,99690.34
2024-03-13T01:33:57.162Z,99703.84
2024-03-13T01:34:38.810Z,99702.84
2024-03-13T01:35:20.702Z,99708.09
2024-03-13T01:36:06.586Z,99695.53
2024-03-13T01:37:07.136Z,99674.97
2024-03-13T01:37:59.724Z,99704.59
2024-03-13T01:38:41.568Z,99696.84
2024-03-13T01:39:23.772Z,99702.13
2024-03-13T01:40:09.602Z,99700.16
2024-03-13T01:41:10.452Z,99683.97
2024-03-13T01:42:10.810Z,99690.41
2024-03-13T01:43:14.178Z,99687.53
2024-03-13T01:44:16.089Z,99701.69
2024-03-13T01:45:24.014Z,99687.31
2024-03-13T01:46:40.123Z,99691.03
2024-03-13T01:48:02.385Z,99699.25
2024-03-13T01:49:04.475Z,99678.50
2024-03-13T01:50:04.999Z,99694.31
2024-03-13T01:51:05.959Z,99703.25
2024-03-13T01:52:11.372Z,99689.88
2024-03-13T01:53:23.403Z,99693.44
2024-03-13T01:54:25.699Z,99696.91
2024-03-13T01:55:25.862Z,99678.47
2024-03-13T01:56:22.691Z,99705.13
2024-03-13T01:57:14.242Z,99691.13
2024-03-13T01:57:59.834Z,99693.25
2024-03-13T01:58:42.082Z,99693.75
2024-03-13T01:59:24.955Z,99695.72
2024-03-13T02:00:26.067Z,99686.22
2024-03-13T02:01:27.255Z,99686.41
2024-03-13T02:02:28.526Z,99695.44
2024-03-13T02:03:11.322Z,99670.78
2024-03-13T02:03:53.230Z,99688.66
2024-03-13T02:04:36.311Z,99688.66
2024-03-13T02:05:18.523Z,99687.03
2024-03-13T02:06:02.647Z,99690.69
2024-03-13T02:06:46.590Z,99693.16
2024-03-13T02:07:29.261Z,99693.94
2024-03-13T02:08:15.257Z,99670.56
2024-03-13T02:08:58.583Z,99649.50
2024-03-13T02:09:40.646Z,99657.56
2024-03-13T02:10:22.583Z,99685.00
2024-03-13T02:11:05.797Z,99670.38
2024-03-13T02:11:47.620Z,99671.88
2024-03-13T02:12:30.595Z,99678.91
2024-03-13T02:13:13.893Z,99685.34
2024-03-13T02:13:56.910Z,99681.38
2024-03-13T02:14:38.895Z,99682.69
2024-03-13T02:15:20.613Z,99681.97
2024-03-13T02:16:04.051Z,99669.66
2024-03-13T02:16:51.605Z,99671.78
2024-03-13T02:17:38.830Z,99654.50
2024-03-13T02:18:29.134Z,99675.25
2024-03-13T02:19:11.661Z,99668.47
2024-03-13T02:19:58.514Z,99650.09
2024-03-13T02:20:41.214Z,99661.53
2024-03-13T02:21:22.924Z,99671.03
2024-03-13T02:22:07.043Z,99672.34
2024-03-13T02:22:49.029Z,99671.53
2024-03-13T02:23:31.640Z,99673.16
2024-03-13T02:24:13.422Z,99662.66
2024-03-13T02:24:55.599Z,99673.34
2024-03-13T02:25:37.252Z,99661.78
2024-03-13T02:26:20.184Z,99672.19
2024-03-13T02:27:08.854Z,99666.72
2024-03-13T02:27:53.585Z,99665.41
2024-03-13T02:28:37.459Z,99676.91
2024-03-13T02:29:19.391Z,99672.81
2024-03-13T02:30:01.055Z,99669.72
2024-03-13T02:30:43.563Z,99659.81
2024-03-13T02:31:26.236Z,99654.09
2024-03-13T02:32:08.392Z,99664.59
2024-03-13T02:32:50.272Z,99677.47
2024-03-13T02:33:32.187Z,99664.75
2024-03-13T02:34:17.517Z,99670.19
2024-03-13T02:34:59.702Z,99667.88
2024-03-13T02:35:43.856Z,99667.72
2024-03-13T02:36:25.599Z,99667.06
2024-03-13T02:37:07.789Z,99666.88
2024-03-13T02:37:49.945Z,99642.56
2024-03-13T02:38:32.194Z,99649.72
2024-03-13T02:39:20.371Z,99668.16
2024-03-13T02:40:02.161Z,99671.63
2024-03-13T02:40:43.966Z,99660.13
2024-03-13T02:41:25.669Z,99638.56
2024-03-13T02:42:08.454Z,99666.72
2024-03-13T02:42:50.259Z,99657.56
2024-03-13T02:43:33.676Z,99647.91
2024-03-13T02:44:15.474Z,99652.38
2024-03-13T02:44:57.185Z,99661.88
2024-03-13T02:45:41.708Z,99667.97
2024-03-13T02:46:23.420Z,99656.13
2024-03-13T02:47:05.383Z,99656.50
2024-03-13T02:47:47.079Z,99672.69
2024-03-13T02:48:29.358Z,99654.25
2024-03-13T02:49:11.667Z,99653.72
2024-03-13T02:49:53.432Z,99635.81
2024-03-13T02:50:36.304Z,99666.25
2024-03-13T02:51:18.393Z,99661.78
2024-03-13T02:52:00.209Z,99650.63
2024-03-13T02:52:42.060Z,99661.94
2024-03-13T02:53:23.754Z,99658.13
2024-03-13T02:54:05.529Z,99652.66
2024-03-13T02:54:47.480Z,99661.44
2024-03-13T02:55:29.465Z,99662.88
2024-03-13T02:56:11.210Z,99653.84
2024-03-13T02:56:52.972Z,99662.47
2024-03-13T02:57:34.728Z,99642.13
2024-03-13T02:58:16.434Z,99666.75
2024-03-13T02:58:58.107Z,99645.59
2024-03-13T02:59:39.762Z,99660.81
2024-03-13T03:00:21.466Z,99661.19
2024-03-13T03:01:03.812Z,99639.34
2024-03-13T03:01:45.631Z,99641.63
2024-03-13T03:02:29.052Z,99646.84
2024-03-13T03:03:13.266Z,99653.44
2024-03-13T03:03:55.015Z,99660.81
2024-03-13T03:04:36.815Z,99665.94
2024-03-13T03:05:19.424Z,99631.25
2024-03-13T03:06:04.453Z,99667.47
2024-03-13T03:06:47.016Z,99640.50
2024-03-13T03:07:29.163Z,99654.69
2024-03-13T03:08:10.900Z,99666.66
2024-03-13T03:08:52.923Z,99643.09
2024-03-13T03:09:34.774Z,99641.63
2024-03-13T03:10:16.587Z,99663.28
2024-03-13T03:11:00.179Z,99644.38
2024-03-13T03:11:45.978Z,99658.81
2024-03-13T03:12:28.760Z,99648.16
2024-03-13T03:13:11.812Z,99643.56
2024-03-13T03:13:53.812Z,99669.53
2024-03-13T03:14:40.914Z,99666.34
2024-03-13T03:15:22.629Z,99665.16
2024-03-13T03:16:04.715Z,99669.28
2024-03-13T03:16:46.443Z,99657.78
2024-03-13T03:17:28.274Z,99678.22
2024-03-13T03:18:12.695Z,99676.56
2024-03-13T03:18:54.497Z,99664.91
2024-03-13T03:19:36.275Z,99644.69
2024-03-13T03:20:17.924Z,99659.81
2024-03-13T03:20:59.610Z,99648.97
2024-03-13T03:21:41.406Z,99651.28
2024-03-13T03:22:23.210Z,99662.94
2024-03-13T03:23:05.042Z,99648.31
2024-03-13T03:23:46.825Z,99666.06
2024-03-13T03:24:31.194Z,99672.19
2024-03-13T03:25:13.297Z,99659.66
2024-03-13T03:25:54.983Z,99651.44
2024-03-13T03:26:36.618Z,99678.47
2024-03-13T03:27:18.358Z,99666.88
2024-03-13T03:28:00.086Z,99649.81
2024-03-13T03:28:41.748Z,99674.28
2024-03-13T03:29:23.481Z,99661.13
2024-03-13T03:30:07.173Z,99655.53
2024-03-13T03:30:49.983Z,99642.03
2024-03-13T03:31:31.925Z,99655.53
2024-03-13T03:32:13.600Z,99667.22
2024-03-13T03:32:55.414Z,99660.38
2024-03-13T03:33:38.224Z,99669.06
2024-03-13T03:34:20.009Z,99656.25
2024-03-13T03:35:01.860Z,99668.41
2024-03-13T03:35:45.136Z,99672.34
2024-03-13T03:36:26.855Z,99670.53
2024-03-13T03:37:08.744Z,99663.28
2024-03-13T03:37:50.489Z,99673.00
2024-03-13T03:38:33.375Z,99649.06
2024-03-13T03:39:18.331Z,99674.09
2024-03-13T03:40:00.090Z,99658.31
2024-03-13T03:40:42.126Z,99674.09
2024-03-13T03:41:23.869Z,99665.25
2024-03-13T03:42:05.884Z,99651.88
2024-03-13T03:42:48.284Z,99673.28
2024-03-13T03:43:30.149Z,99646.16
2024-03-13T03:44:12.467Z,99676.91
2024-03-13T03:44:54.693Z,99667.88
2024-03-13T03:45:36.369Z,99664.41
2024-03-13T03:46:18.760Z,99677.75
2024-03-13T03:47:01.158Z,99677.75
2024-03-13T03:47:43.082Z,99665.09
2024-03-13T03:48:24.852Z,99680.59
2024-03-13T03:49:09.599Z,99655.75
2024-03-13T03:49:51.384Z,99676.28
2024-03-13T03:50:33.092Z,99676.09
2024-03-13T03:51:18.165Z,99682.84
2024-03-13T03:51:59.992Z,99665.88
2024-03-13T03:52:41.969Z,99662.59
2024-03-13T03:53:23.649Z,99653.09
2024-03-13T03:54:06.278Z,99675.47
2024-03-13T03:54:48.833Z,99660.19
2024-03-13T03:55:31.183Z,99659.38
2024-03-13T03:56:15.868Z,99662.47
2024-03-13T03:56:57.528Z,99659.56
2024-03-13T03:57:42.304Z,99667.41
2024-03-13T03:58:24.339Z,99660.47
2024-03-13T03:59:09.002Z,99674.91
2024-03-13T03:59:50.675Z,99681.84
2024-03-13T04:00:36.175Z,99674.91
2024-03-13T04:01:18.548Z,99663.47
2024-03-13T04:02:00.374Z,99678.47
2024-03-13T04:02:43.523Z,99663.66
2024-03-13T04:03:25.215Z,99677.16
2024-03-13T04:04:06.868Z,99685.41
2024-03-13T04:04:50.016Z,99680.09
2024-03-13T04:05:32.949Z,99656.09
2024-03-13T04:06:18.141Z,99678.94
2024-03-13T04:06:59.883Z,99684.03
2024-03-13T04:07:41.647Z,99667.22
2024-03-13T04:08:23.352Z,99651.88
2024-03-13T04:09:15.777Z,99674.75
2024-03-13T04:09:57.984Z,99675.56
2024-03-13T04:10:40.325Z,99657.47
2024-03-13T04:11:22.250Z,99684.81
2024-03-13T04:12:04.337Z,99682.16
2024-03-13T04:12:46.618Z,99661.94
2024-03-13T04:13:28.536Z,99683.97
2024-03-13T04:14:12.067Z,99682.69
2024-03-13T04:14:53.736Z,99682.50
2024-03-13T04:15:35.642Z,99683.16
2024-03-13T04:16:18.082Z,99681.34
2024-03-13T04:16:59.800Z,99674.22
2024-03-13T04:17:41.558Z,99663.81
2024-03-13T04:18:23.293Z,99681.81
2024-03-13T04:19:04.938Z,99678.88
2024-03-13T04:19:46.633Z,99680.03
2024-03-13T04:20:28.362Z,99683.69
2024-03-13T04:21:13.923Z,99677.94
2024-03-13T04:21:55.600Z,99655.09
2024-03-13T04:22:37.346Z,99689.13
2024-03-13T04:23:18.985Z,99683.84
2024-03-13T04:24:01.889Z,99668.53
2024-03-13T04:24:44.513Z,99645.34
2024-03-13T04:25:26.512Z,99684.50
2024-03-13T04:26:08.281Z,99684.50
2024-03-13T04:26:49.963Z,99685.50
2024-03-13T04:27:31.665Z,99683.03
2024-03-13T04:28:13.480Z,99690.50
2024-03-13T04:28:55.130Z,99681.28
2024-03-13T04:29:43.956Z,99671.88
2024-03-13T04:30:30.373Z,99659.78
2024-03-13T04:31:14.801Z,99683.50
2024-03-13T04:31:58.816Z,99685.41
2024-03-13T04:32:40.508Z,99675.22
2024-03-13T04:33:23.825Z,99673.75
2024-03-13T04:34:08.555Z,99679.16
2024-03-13T04:34:52.170Z,99663.53
2024-03-13T04:35:33.999Z,99675.03
2024-03-13T04:36:15.687Z,99681.09
2024-03-13T04:36:57.433Z,99687.50
2024-03-13T04:37:40.592Z,99688.81
2024-03-13T04:38:22.457Z,99681.34
2024-03-13T04:39:05.808Z,99689.91
2024-03-13T04:39:47.454Z,99695.19
2024-03-13T04:40:29.239Z,99685.63
2024-03-13T04:41:12.562Z,99685.81
2024-03-13T04:41:54.301Z,99694.19
2024-03-13T04:42:36.072Z,99688.47
2024-03-13T04:43:18.121Z,99691.75
2024-03-13T04:44:00.182Z,99685.34
2024-03-13T04:44:42.607Z,99691.28
2024-03-13T04:45:24.479Z,99680.56
2024-03-13T04:46:06.201Z,99671.53
2024-03-13T04:46:48.392Z,99693.56
2024-03-13T04:47:32.214Z,99694.19
2024-03-13T04:48:14.454Z,99701.50
2024-03-13T04:48:56.265Z,99697.22
2024-03-13T04:49:38.433Z,99698.03
2024-03-13T04:50:20.209Z,99661.31
2024-03-13T04:51:02.016Z,99670.38
2024-03-13T04:51:43.832Z,99698.84
2024-03-13T04:52:27.114Z,99692.25
2024-03-13T04:53:09.088Z,99692.09
2024-03-13T04:53:50.778Z,99672.63
2024-03-13T04:54:33.522Z,99695.50
2024-03-13T04:55:15.262Z,99682.16
2024-03-13T04:55:56.947Z,99693.19
2024-03-13T04:56:39.219Z,99703.94
2024-03-13T04:57:20.886Z,99696.22
2024-03-13T04:58:02.814Z,99685.03
2024-03-13T04:58:45.721Z,99674.81
2024-03-13T04:59:27.564Z,99697.56
2024-03-13T05:00:09.618Z,99690.31
2024-03-13T05:00:51.375Z,99683.44
2024-03-13T05:01:33.253Z,99672.59
2024-03-13T05:02:15.746Z,99683.28
2024-03-13T05:02:57.459Z,99691.97
2024-03-13T05:03:39.224Z,99702.19
2024-03-13T05:04:21.004Z,99675.03
2024-03-13T05:05:02.740Z,99690.78
2024-03-13T05:05:46.831Z,99700.53
2024-03-13T05:06:28.520Z,99690.69
2024-03-13T05:07:12.058Z,99694.97
2024-03-13T05:07:55.842Z,99701.53
2024-03-13T05:08:38.038Z,99686.09
2024-03-13T05:09:19.729Z,99684.44
2024-03-13T05:10:01.505Z,99706.47
2024-03-13T05:10:43.963Z,99707.31
2024-03-13T05:11:25.815Z,99707.66
2024-03-13T05:12:07.749Z,99706.66
2024-03-13T05:12:49.556Z,99688.44
2024-03-13T05:13:31.521Z,99705.56
2024-03-13T05:14:13.185Z,99690.44
2024-03-13T05:14:54.919Z,99703.09
2024-03-13T05:15:36.592Z,99702.28
2024-03-13T05:16:20.117Z,99669.72
2024-03-13T05:17:01.848Z,99680.88
2024-03-13T05:17:43.588Z,99699.84
2024-03-13T05:18:25.256Z,99706.75
2024-03-13T05:19:07.325Z,99707.94
2024-03-13T05:19:49.044Z,99704.59
2024-03-13T05:20:30.849Z,99710.88
2024-03-13T05:21:13.881Z,99681.84
2024-03-13T05:21:55.691Z,99710.88
2024-03-13T05:22:37.591Z,99695.06
2024-03-13T05:23:19.358Z,99707.22
2024-03-13T05:24:01.025Z,99711.69
2024-03-13T05:24:43.110Z,99709.22
2024-03-13T05:25:25.561Z,99698.19
2024-03-13T05:26:07.426Z,99694.91
2024-03-13T05:26:49.137Z,99701.00
2024-03-13T05:27:30.844Z,99709.44
2024-03-13T05:28:12.566Z,99689.19
2024-03-13T05:28:55.889Z,99708.97
2024-03-13T05:29:37.652Z,99727.59
2024-03-13T05:30:20.148Z,99715.22
2024-03-13T05:31:01.901Z,99713.91
2024-03-13T05:31:43.652Z,99706.81
2024-03-13T05:32:25.391Z,99694.31
2024-03-13T05:33:08.258Z,99723.25
2024-03-13T05:33:49.997Z,99716.50
2024-03-13T05:34:31.698Z,99699.34
2024-03-13T05:35:14.375Z,99715.47
2024-03-13T05:35:56.107Z,99711.69
2024-03-13T05:36:39.437Z,99716.28
2024-03-13T05:37:21.834Z,99717.28
2024-03-13T05:38:05.067Z,99712.22
2024-03-13T05:38:46.796Z,99723.41
2024-03-13T05:39:28.583Z,99724.41
2024-03-13T05:40:20.834Z,99706.69
2024-03-13T05:41:02.636Z,99709.78
2024-03-13T05:41:46.957Z,99727.59
2024-03-13T05:42:28.783Z,99713.25
2024-03-13T05:43:10.911Z,99732.34
2024-03-13T05:43:52.710Z,99714.56
2024-03-13T05:44:35.256Z,99726.38
2024-03-13T05:45:17.303Z,99714.88
2024-03-13T05:45:59.315Z,99730.94
2024-03-13T05:46:41.138Z,99726.16
2024-03-13T05:47:22.822Z,99716.13
2024-03-13T05:48:04.755Z,99726.47
2024-03-13T05:48:48.160Z,99730.44
2024-03-13T05:49:30.275Z,99734.78
2024-03-13T05:50:12.091Z,99736.13
2024-03-13T05:50:54.865Z,99726.72
2024-03-13T05:51:36.592Z,99734.47
2024-03-13T05:52:18.353Z,99742.56
2024-03-13T05:53:00.043Z,99737.28
2024-03-13T05:53:41.770Z,99730.66
2024-03-13T05:54:24.901Z,99731.31
2024-03-13T05:55:06.913Z,99738.25
2024-03-13T05:55:48.605Z,99737.78
2024-03-13T05:56:30.357Z,99738.78
2024-03-13T05:57:12.190Z,99736.13
2024-03-13T05:57:53.992Z,99718.03
2024-03-13T05:58:35.799Z,99737.59
2024-03-13T05:59:18.643Z,99724.41
2024-03-13T06:00:04.868Z,99733.81
2024-03-13T06:00:53.829Z,99738.53
2024-03-13T06:01:36.303Z,99732.97
2024-03-13T06:02:18.613Z,99717.47
2024-03-13T06:03:00.518Z,99747.44
2024-03-13T06:03:42.777Z,99740.50
2024-03-13T06:04:24.554Z,99733.22
2024-03-13T06:05:13.038Z,99729.44
2024-03-13T06:05:55.133Z,99740.59
2024-03-13T06:06:38.826Z,99736.69
2024-03-13T06:07:20.692Z,99745.56
2024-03-13T06:08:02.366Z,99731.09
2024-03-13T06:08:44.066Z,99746.88
2024-03-13T06:09:25.741Z,99743.03
2024-03-13T06:10:09.857Z,99736.47
2024-03-13T06:10:51.792Z,99736.28
2024-03-13T06:11:35.300Z,99728.81
2024-03-13T06:12:17.067Z,99734.16
2024-03-13T06:12:58.849Z,99736.94
2024-03-13T06:13:40.694Z,99734.56
2024-03-13T06:14:22.383Z,99717.03
2024-03-13T06:15:08.242Z,99724.28
2024-03-13T06:15:50.089Z,99731.84
2024-03-13T06:16:32.345Z,99739.06
2024-03-13T06:17:14.140Z,99713.03
2024-03-13T06:17:56.316Z,99745.50
2024-03-13T06:18:38.608Z,99748.94
2024-03-13T06:19:20.325Z,99714.13
2024-03-13T06:20:04.580Z,99754.59
2024-03-13T06:20:48.367Z,99748.47
2024-03-13T06:21:30.935Z,99740.00
2024-03-13T06:22:12.782Z,99746.22
2024-03-13T06:22:54.529Z,99745.69
2024-03-13T06:23:48.765Z,99740.03
2024-03-13T06:24:33.610Z,99732.00
2024-03-13T06:25:16.689Z,99750.91
2024-03-13T06:25:59.209Z,99749.25
2024-03-13T06:26:49.592Z,99736.13
2024-03-13T06:27:36.675Z,99753.19
2024-03-13T06:28:37.046Z,99755.03
2024-03-13T06:29:37.562Z,99751.38
2024-03-13T06:30:19.252Z,99760.31
2024-03-13T06:31:04.251Z,99754.72
2024-03-13T06:31:46.162Z,99732.69
2024-03-13T06:32:29.799Z,99751.34
2024-03-13T06:33:12.548Z,99752.81
2024-03-13T06:33:55.176Z,99737.00
2024-03-13T06:34:37.841Z,99747.69
2024-03-13T06:35:20.222Z,99753.16
2024-03-13T06:36:02.209Z,99748.22
2024-03-13T06:36:44.229Z,99749.69
2024-03-13T06:37:26.257Z,99756.06
2024-03-13T06:38:08.268Z,99745.50
2024-03-13T06:38:50.003Z,99752.09
2024-03-13T06:39:31.706Z,99752.91
2024-03-13T06:40:13.565Z,99753.72
2024-03-13T06:40:55.263Z,99741.13
2024-03-13T06:41:37.075Z,99754.03
2024-03-13T06:42:18.867Z,99746.78
2024-03-13T06:43:00.693Z,99753.72
2024-03-13T06:43:42.389Z,99763.13
2024-03-13T06:44:24.544Z,99762.31
2024-03-13T06:45:07.016Z,99735.63
2024-03-13T06:45:49.495Z,99767.44
2024-03-13T06:46:31.303Z,99765.44
2024-03-13T06:47:13.072Z,99768.09
2024-03-13T06:47:54.904Z,99746.88
2024-03-13T06:48:36.887Z,99766.44
2024-03-13T06:49:18.636Z,99770.53
2024-03-13T06:50:01.959Z,99766.69
2024-03-13T06:50:44.443Z,99761.22
2024-03-13T06:51:26.357Z,99767.81
2024-03-13T06:52:13.964Z,99773.94
2024-03-13T06:52:55.779Z,99773.13
2024-03-13T06:53:37.592Z,99772.66
2024-03-13T06:54:19.329Z,99742.75
2024-03-13T06:55:01.105Z,99773.81
2024-03-13T06:55:42.966Z,99768.69
2024-03-13T06:56:26.031Z,99773.66
2024-03-13T06:57:08.417Z,99765.88
2024-03-13T06:57:50.392Z,99767.69
2024-03-13T06:58:32.600Z,99774.28
2024-03-13T06:59:18.154Z,99771.66
2024-03-13T07:00:00.374Z,99764.22
2024-03-13T07:00:42.558Z,99755.38
2024-03-13T07:01:24.466Z,99765.22
2024-03-13T07:02:07.768Z,99771.66
2024-03-13T07:02:49.818Z,99757.84
2024-03-13T07:03:31.850Z,99770.91
2024-03-13T07:04:13.616Z,99761.69
2024-03-13T07:04:56.024Z,99773.38
2024-03-13T07:05:37.849Z,99769.09
2024-03-13T07:06:19.597Z,99760.41
2024-03-13T07:07:01.842Z,99769.66
2024-03-13T07:07:46.072Z,99776.59
2024-03-13T07:08:27.880Z,99784.72
2024-03-13T07:09:10.486Z,99775.56
2024-03-13T07:09:52.249Z,99784.22
2024-03-13T07:10:34.184Z,99780.94
2024-03-13T07:11:16.180Z,99780.28
2024-03-13T07:11:59.003Z,99777.84
2024-03-13T07:12:41.080Z,99771.56
2024-03-13T07:13:25.347Z,99785.19
2024-03-13T07:14:13.009Z,99782.97
2024-03-13T07:14:54.770Z,99787.25
2024-03-13T07:15:36.559Z,99761.41
2024-03-13T07:16:18.425Z,99785.44
2024-03-13T07:17:00.307Z,99790.75
2024-03-13T07:17:44.191Z,99789.91
2024-03-13T07:18:25.953Z,99791.38
2024-03-13T07:19:09.111Z,99795.50
2024-03-13T07:19:50.962Z,99776.84
2024-03-13T07:20:32.853Z,99776.84
2024-03-13T07:21:14.640Z,99780.63
2024-03-13T07:21:56.418Z,99772.19
2024-03-13T07:22:39.905Z,99795.75
2024-03-13T07:23:22.960Z,99785.31
2024-03-13T07:24:05.013Z,99792.25
2024-03-13T07:24:46.783Z,99789.47
2024-03-13T07:25:28.640Z,99777.31
2024-03-13T07:26:11.723Z,99783.72
2024-03-13T07:26:53.753Z,99792.44
2024-03-13T07:27:35.458Z,99773.13
2024-03-13T07:28:18.471Z,99792.53
2024-03-13T07:29:01.807Z,99787.22
2024-03-13T07:29:43.592Z,99797.28
2024-03-13T07:30:28.133Z,99779.28
2024-03-13T07:31:09.971Z,99782.09
2024-03-13T07:31:51.792Z,99797.28
2024-03-13T07:32:33.613Z,99775.19
2024-03-13T07:33:16.167Z,99770.50
2024-03-13T07:33:58.344Z,99794.19
2024-03-13T07:34:41.358Z,99800.31
2024-03-13T07:35:26.253Z,99795.53
2024-03-13T07:36:08.986Z,99792.88
2024-03-13T07:36:50.833Z,99788.50
2024-03-13T07:37:33.258Z,99798.19
2024-03-13T07:38:15.227Z,99793.63
2024-03-13T07:39:00.532Z,99798.19
2024-03-13T07:39:42.445Z,99795.75
2024-03-13T07:40:25.727Z,99800.66
2024-03-13T07:41:11.823Z,99791.28
2024-03-13T07:41:53.534Z,99795.28
2024-03-13T07:42:35.270Z,99786.31
2024-03-13T07:43:17.267Z,99804.75
2024-03-13T07:43:59.010Z,99790.16
2024-03-13T07:44:40.748Z,99782.09
2024-03-13T07:45:22.460Z,99789.78
2024-03-13T07:46:04.447Z,99803.59
2024-03-13T07:46:46.184Z,99813.00
2024-03-13T07:47:28.011Z,99796.47
2024-03-13T07:48:10.286Z,99804.69
2024-03-13T07:48:52.228Z,99795.63
2024-03-13T07:49:34.183Z,99805.06
2024-03-13T07:50:15.931Z,99787.16
2024-03-13T07:50:57.739Z,99807.34
2024-03-13T07:51:39.915Z,99793.63
2024-03-13T07:52:21.687Z,99787.22
2024-03-13T07:53:04.720Z,99812.19
2024-03-13T07:53:46.572Z,99788.97
2024-03-13T07:54:29.973Z,99812.00
2024-03-13T07:55:11.770Z,99816.31
2024-03-13T07:55:53.479Z,99813.66
2024-03-13T07:56:35.194Z,99812.91
2024-03-13T07:57:17.264Z,99804.94
2024-03-13T07:57:59.527Z,99804.31
2024-03-13T07:58:41.261Z,99809.97
2024-03-13T07:59:26.720Z,99814.09
2024-03-13T08:00:09.046Z,99821.03
2024-03-13T08:00:54.524Z,99816.28
2024-03-13T08:01:42.623Z,99812.31
2024-03-13T08:02:24.735Z,99829.59
2024-03-13T08:03:06.809Z,99825.44
2024-03-13T08:03:48.581Z,99828.72
2024-03-13T08:04:30.448Z,99828.06
2024-03-13T08:05:12.509Z,99828.59
2024-03-13T09:05:56.057Z,99879.41
2024-03-13T09:06:39.533Z,99878.19
2024-03-13T09:07:22.897Z,99874.34
2024-03-13T09:08:05.089Z,99877.44
2024-03-13T09:08:48.588Z,99878.31
2024-03-13T09:09:30.808Z,99880.63
2024-03-13T09:10:14.133Z,99881.06
2024-03-13T09:10:57.960Z,99867.34
2024-03-13T09:11:41.401Z,99859.75
2024-03-13T09:12:24.584Z,99881.75
2024-03-13T09:13:06.486Z,99873.16
2024-03-13T09:13:48.324Z,99881.03
2024-03-13T09:14:30.260Z,99866.19
2024-03-13T09:15:15.515Z,99884.41
2024-03-13T09:16:02.199Z,99856.50
2024-03-13T09:16:44.516Z,99873.81
2024-03-13T09:17:26.330Z,99881.59
2024-03-13T09:18:08.565Z,99857.41
2024-03-13T09:18:50.697Z,99875.88
2024-03-13T09:19:35.288Z,99875.25
2024-03-13T09:20:17.174Z,99881.19
2024-03-13T09:20:59.150Z,99884.44
2024-03-13T09:21:43.056Z,99876.88
2024-03-13T09:22:24.997Z,99886.88
2024-03-13T09:23:07.932Z,99890.72
2024-03-13T09:23:52.300Z,99880.28
2024-03-13T09:24:36.136Z,99888.81
2024-03-13T09:25:17.991Z,99889.72
2024-03-13T09:26:00.829Z,99881.25
2024-03-13T09:26:42.764Z,99883.13
2024-03-13T09:27:25.016Z,99882.97
2024-03-13T09:28:06.820Z,99865.28